Time;durP1;ratioP1;P1;durP2;ratioP2;P2;SDS_P1;SDS_P2;PMS_P1;PMS_P2;Temp;Humidity;BMP_temperature;BMP_pressure;BME280_temperature;BME280_humidity;BME280_pressure;Samples;Min_cycle;Max_cycle;Signal;HPM_P1;HPM_P2
2022/01/02 00:02:02;;;;;;;15.50;8.30;;;;;;;7.65;75.60;100938.85;130210;1268;109755;-78
2022/01/02 00:05:10;;;;;;;14.80;8.00;;;;;;;7.67;75.93;100945.63;130258;1268;107863;-77
2022/01/02 00:08:16;;;;;;;11.70;7.00;;;;;;;7.65;75.67;100941.20;130250;1268;109826;-78
2022/01/02 00:11:26;;;;;;;12.50;6.40;;;;;;;7.61;75.81;100933.87;130278;1268;108900;-77
2022/01/02 00:14:36;;;;;;;12.30;6.70;;;;;;;7.58;75.63;100930.03;130270;1268;108878;-76
2022/01/02 00:17:43;;;;;;;9.80;5.80;;;;;;;7.57;75.60;100931.56;130243;1268;108715;-74
2022/01/02 00:20:50;;;;;;;10.20;5.10;;;;;;;7.52;75.69;100930.90;130314;1268;108576;-76
2022/01/02 00:24:00;;;;;;;11.50;5.00;;;;;;;7.48;75.80;100936.27;130226;1268;108820;-76
2022/01/02 00:27:08;;;;;;;9.10;5.20;;;;;;;7.48;75.98;100932.88;130259;1267;108696;-76
2022/01/02 00:30:14;;;;;;;10.80;5.00;;;;;;;7.53;75.92;100931.67;130086;1268;107626;-77
2022/01/02 00:33:21;;;;;;;8.40;4.40;;;;;;;7.55;76.17;100927.23;130233;1268;108945;-76
2022/01/02 00:36:27;;;;;;;8.60;4.40;;;;;;;7.56;75.90;100924.67;130300;1268;108780;-77
2022/01/02 00:39:32;;;;;;;8.00;4.10;;;;;;;7.54;75.86;100923.13;130252;1268;108125;-75
2022/01/02 00:42:40;;;;;;;7.20;3.90;;;;;;;7.48;76.06;100925.42;130231;1268;108917;-74
2022/01/02 00:45:50;;;;;;;7.20;4.20;;;;;;;7.43;75.98;100912.91;130248;1268;108140;-75
2022/01/02 00:49:03;;;;;;;8.30;4.20;;;;;;;7.35;76.40;100907.00;130582;1268;108527;-76
2022/01/02 00:52:12;;;;;;;7.20;3.70;;;;;;;7.26;76.38;100898.99;130223;1268;109047;-74
2022/01/02 00:55:22;;;;;;;9.50;4.00;;;;;;;7.19;76.61;100899.69;130305;1268;108849;-76
2022/01/02 00:58:36;;;;;;;8.20;4.40;;;;;;;7.16;76.48;100902.08;130240;1268;108683;-76
2022/01/02 01:01:48;;;;;;;7.70;4.40;;;;;;;7.18;76.95;100900.17;130254;1268;108853;-76
2022/01/02 01:04:56;;;;;;;8.60;4.30;;;;;;;7.16;76.68;100894.23;130327;1268;108867;-74
2022/01/02 01:08:03;;;;;;;8.10;4.30;;;;;;;7.15;76.93;100893.08;130281;1268;108867;-73
2022/01/02 01:11:11;;;;;;;7.10;4.20;;;;;;;7.13;76.80;100890.59;130234;1268;108992;-73
2022/01/02 01:14:16;;;;;;;8.60;4.30;;;;;;;7.11;76.97;100891.63;130225;1268;108623;-73
2022/01/02 01:17:22;;;;;;;6.80;4.10;;;;;;;7.09;76.79;100879.92;130255;1268;108884;-76
2022/01/02 01:20:30;;;;;;;7.40;4.20;;;;;;;7.05;77.07;100876.00;130468;1268;108796;-77
2022/01/02 01:23:35;;;;;;;7.80;3.50;;;;;;;7.00;77.00;100874.36;130253;1268;107668;-76
2022/01/02 01:26:43;;;;;;;8.50;3.90;;;;;;;7.01;77.12;100878.42;130276;1267;108803;-76
2022/01/02 01:29:48;;;;;;;6.80;4.00;;;;;;;7.03;77.08;100875.60;130288;1268;107433;-75
2022/01/02 01:32:55;;;;;;;8.40;4.00;;;;;;;7.06;77.00;100870.92;130423;1268;108912;-77
2022/01/02 01:36:00;;;;;;;8.00;3.70;;;;;;;7.04;76.77;100865.96;130338;1268;108859;-75
2022/01/02 01:39:06;;;;;;;6.30;4.20;;;;;;;7.05;77.03;100859.86;130280;1267;108668;-73
2022/01/02 01:42:12;;;;;;;8.20;4.10;;;;;;;7.04;77.00;100851.83;130288;1267;108705;-73
2022/01/02 01:45:30;;;;;;;7.00;4.10;;;;;;;7.00;77.34;100845.89;130288;1267;109049;-73
2022/01/02 01:48:36;;;;;;;5.90;3.90;;;;;;;6.96;77.15;100840.55;130310;1266;108668;-72
2022/01/02 01:51:42;;;;;;;6.40;4.20;;;;;;;6.97;77.40;100833.92;130356;1267;108953;-73
2022/01/02 01:54:47;;;;;;;8.30;4.40;;;;;;;6.98;77.23;100819.52;130331;1267;108895;-72
2022/01/02 01:57:54;;;;;;;7.70;4.80;;;;;;;6.99;77.27;100813.09;130365;1267;108628;-72
2022/01/02 02:01:01;;;;;;;8.90;5.90;;;;;;;7.01;77.29;100811.14;130284;1267;108832;-72
2022/01/02 02:04:13;;;;;;;8.70;5.80;;;;;;;7.01;77.34;100804.80;130255;1267;108760;-73
2022/01/02 02:07:26;;;;;;;10.70;6.40;;;;;;;7.02;77.45;100799.36;130288;1267;108706;-73
2022/01/02 02:10:38;;;;;;;9.50;6.20;;;;;;;7.00;77.25;100792.52;130302;1267;108742;-72
2022/01/02 02:13:46;;;;;;;9.50;6.10;;;;;;;6.94;77.40;100781.28;130267;1267;108711;-72
2022/01/02 02:16:51;;;;;;;11.10;6.00;;;;;;;6.87;77.34;100772.95;130249;1267;107657;-72
2022/01/02 02:20:11;;;;;;;9.60;5.60;;;;;;;6.81;77.30;100774.64;130278;1267;109002;-70
2022/01/02 02:23:17;;;;;;;10.90;6.30;;;;;;;6.80;77.66;100786.63;130278;1267;106999;-72
2022/01/02 02:26:22;;;;;;;11.20;6.20;;;;;;;6.86;77.67;100792.88;130250;1267;108938;-72
2022/01/02 02:29:28;;;;;;;10.40;6.80;;;;;;;6.89;77.88;100786.27;130248;1267;108669;-72
2022/01/02 02:32:33;;;;;;;9.40;6.40;;;;;;;6.92;77.69;100783.38;130237;1267;109064;-72
2022/01/02 02:35:41;;;;;;;10.40;6.60;;;;;;;6.91;77.67;100777.13;130251;1267;108865;-72
2022/01/02 02:38:46;;;;;;;11.40;7.40;;;;;;;6.90;77.71;100781.58;130246;1267;108835;-74
2022/01/02 02:41:52;;;;;;;12.90;5.90;;;;;;;6.89;77.90;100780.45;130222;1267;108743;-75
2022/01/02 02:48:57;;;;;;;9.50;6.10;;;;;;;6.84;77.90;100776.58;130236;1267;108648;-74
2022/01/02 02:52:03;;;;;;;10.60;6.50;;;;;;;6.86;77.94;100773.38;130287;1267;108811;-75
2022/01/02 02:55:12;;;;;;;8.90;6.20;;;;;;;6.90;77.92;100760.36;130321;1267;108711;-74
2022/01/02 02:58:39;;;;;;;8.90;6.10;;;;;;;6.86;78.07;100758.53;130273;1267;109729;-74
2022/01/02 03:01:45;;;;;;;9.60;6.10;;;;;;;6.85;77.75;100763.56;130273;1267;108840;-76
2022/01/02 03:04:50;;;;;;;8.50;5.60;;;;;;;6.85;77.88;100752.26;130305;1267;108849;-75
2022/01/02 03:07:57;;;;;;;8.60;4.70;;;;;;;6.83;77.97;100753.98;130273;1267;108784;-78
2022/01/02 03:11:05;;;;;;;8.70;5.80;;;;;;;6.84;78.00;100747.88;130260;1267;108888;-75
2022/01/02 03:14:13;;;;;;;9.90;6.00;;;;;;;6.86;78.24;100732.77;130303;1267;108730;-74
2022/01/02 03:17:20;;;;;;;10.00;6.20;;;;;;;6.89;78.17;100717.13;130334;1267;108830;-73
2022/01/02 03:20:26;;;;;;;10.50;6.20;;;;;;;6.88;78.03;100698.82;130308;1267;108788;-75
2022/01/02 03:23:32;;;;;;;9.70;6.10;;;;;;;6.83;78.11;100695.80;130246;1267;108778;-74
2022/01/02 03:26:37;;;;;;;9.80;5.90;;;;;;;6.81;78.28;100686.27;129941;1267;108812;-71
2022/01/02 03:29:43;;;;;;;9.20;5.30;;;;;;;6.76;78.16;100681.39;130227;1267;108848;-74
2022/01/02 03:32:50;;;;;;;9.00;5.30;;;;;;;6.70;78.47;100677.89;130250;1267;108786;-74
2022/01/02 03:35:55;;;;;;;8.50;5.30;;;;;;;6.72;78.56;100675.16;130249;1267;108842;-74
2022/01/02 03:39:01;;;;;;;9.00;5.30;;;;;;;6.75;78.50;100678.26;130248;1267;108659;-74
2022/01/02 03:42:08;;;;;;;8.30;5.30;;;;;;;6.78;78.65;100678.91;130317;1267;108920;-72
2022/01/02 03:45:13;;;;;;;9.00;5.50;;;;;;;6.80;78.39;100672.91;130302;1267;108842;-74
2022/01/02 03:48:19;;;;;;;10.00;5.50;;;;;;;6.80;78.63;100658.20;130270;1266;109122;-76
2022/01/02 03:51:24;;;;;;;9.10;4.90;;;;;;;6.76;78.65;100651.48;130232;1267;108789;-74
2022/01/02 03:54:30;;;;;;;8.00;4.80;;;;;;;6.72;78.63;100653.51;130262;1267;107676;-74
2022/01/02 03:57:36;;;;;;;9.70;5.20;;;;;;;6.74;78.90;100648.85;130299;1267;108509;-74
2022/01/02 04:00:42;;;;;;;10.20;6.00;;;;;;;6.76;79.14;100642.45;130333;1267;108719;-74
2022/01/02 04:03:47;;;;;;;8.60;5.20;;;;;;;6.82;78.89;100633.11;130192;1267;108731;-74
2022/01/02 04:06:53;;;;;;;8.00;5.50;;;;;;;6.88;78.87;100628.09;130316;1267;109035;-75
2022/01/02 04:10:01;;;;;;;9.30;5.90;;;;;;;6.88;78.74;100625.77;130265;1267;108861;-76
2022/01/02 04:13:07;;;;;;;10.80;6.20;;;;;;;6.84;79.19;100628.89;130384;1267;108851;-75
2022/01/02 04:16:13;;;;;;;11.40;6.00;;;;;;;6.83;78.81;100627.05;130310;1267;108734;-74
2022/01/02 04:19:19;;;;;;;8.40;5.40;;;;;;;6.81;79.03;100616.23;130239;1267;109417;-74
2022/01/02 04:22:24;;;;;;;9.70;5.90;;;;;;;6.83;79.36;100615.35;130292;1267;108828;-75
2022/01/02 04:25:30;;;;;;;11.20;6.20;;;;;;;6.86;79.24;100604.83;130324;1267;107671;-74
2022/01/02 04:28:35;;;;;;;11.40;6.10;;;;;;;6.90;79.08;100601.42;130275;1267;108796;-72
2022/01/02 04:31:41;;;;;;;11.10;6.10;;;;;;;6.89;79.26;100595.41;130323;1267;108867;-73
2022/01/02 04:34:46;;;;;;;10.60;6.30;;;;;;;6.91;79.36;100594.90;130314;1267;108123;-73
2022/01/02 04:37:53;;;;;;;10.70;6.00;;;;;;;6.91;79.43;100587.35;130256;1267;108649;-74
2022/01/02 04:40:58;;;;;;;9.80;5.70;;;;;;;6.91;79.56;100582.23;130293;1267;108721;-75
2022/01/02 04:44:04;;;;;;;10.80;6.60;;;;;;;6.91;79.84;100579.38;130279;1266;107497;-76
2022/01/02 04:47:09;;;;;;;11.80;6.60;;;;;;;6.92;79.78;100570.81;130310;1267;108820;-74
2022/01/02 04:50:15;;;;;;;13.10;7.80;;;;;;;6.95;79.83;100567.39;130242;1267;108805;-75
2022/01/02 04:53:21;;;;;;;13.60;8.50;;;;;;;6.94;79.99;100553.13;130234;1267;108778;-73
2022/01/02 04:56:27;;;;;;;12.90;8.00;;;;;;;6.89;79.96;100546.46;130216;1267;108800;-74
2022/01/02 04:59:33;;;;;;;12.20;7.10;;;;;;;6.84;80.06;100532.86;130254;1267;108713;-72
2022/01/02 05:02:38;;;;;;;11.90;6.90;;;;;;;6.79;80.17;100537.34;130244;1267;108885;-73
2022/01/02 05:05:44;;;;;;;14.40;8.30;;;;;;;6.79;80.18;100527.09;130258;1267;108817;-75
2022/01/02 05:08:50;;;;;;;13.60;8.60;;;;;;;6.84;80.26;100512.34;130312;1267;108801;-74
2022/01/02 05:11:55;;;;;;;12.60;8.30;;;;;;;6.87;80.41;100516.75;130250;1267;108876;-74
2022/01/02 05:15:01;;;;;;;14.00;8.40;;;;;;;6.87;80.32;100509.09;130230;1267;108879;-75
2022/01/02 05:18:06;;;;;;;13.10;7.30;;;;;;;6.88;80.42;100503.71;130265;1267;108772;-74
2022/01/02 05:21:13;;;;;;;13.10;7.30;;;;;;;6.90;80.52;100500.77;130300;1267;108836;-72
2022/01/02 05:24:18;;;;;;;14.60;8.50;;;;;;;6.93;80.71;100504.59;130211;1267;108915;-73
2022/01/02 05:27:24;;;;;;;14.40;8.80;;;;;;;6.95;80.55;100499.48;130244;1267;108660;-74
2022/01/02 05:30:30;;;;;;;18.00;9.40;;;;;;;7.01;80.49;100498.27;130258;1267;107583;-75
2022/01/02 05:33:35;;;;;;;15.10;9.40;;;;;;;7.03;80.60;100492.77;130240;1267;108971;-72
2022/01/02 05:36:48;;;;;;;16.40;9.80;;;;;;;7.02;80.52;100487.42;130257;1267;108967;-74
2022/01/02 05:39:54;;;;;;;16.00;8.70;;;;;;;7.00;80.73;100478.73;130261;1267;109386;-76
2022/01/02 05:43:00;;;;;;;15.00;8.60;;;;;;;7.00;80.90;100468.48;130240;1267;109001;-75
2022/01/02 05:46:06;;;;;;;16.90;9.50;;;;;;;7.02;80.74;100458.03;130282;1267;108760;-76
2022/01/02 05:49:12;;;;;;;16.90;9.90;;;;;;;7.06;80.66;100459.67;130261;1267;107766;-75
2022/01/02 05:52:19;;;;;;;16.50;10.20;;;;;;;7.12;81.02;100444.73;130420;1267;108683;-75
2022/01/02 05:55:25;;;;;;;16.30;10.10;;;;;;;7.14;80.86;100444.85;130301;1267;107554;-75
2022/01/02 05:58:30;;;;;;;16.20;9.00;;;;;;;7.16;80.79;100440.85;130327;1267;108843;-76
2022/01/02 06:01:36;;;;;;;16.80;9.50;;;;;;;7.15;80.97;100431.32;130296;1267;108863;-75
2022/01/02 06:04:41;;;;;;;17.50;10.40;;;;;;;7.18;80.81;100428.29;130262;1267;108916;-75
2022/01/02 06:07:47;;;;;;;20.10;11.00;;;;;;;7.23;80.87;100418.64;130284;1267;108840;-73
2022/01/02 06:10:53;;;;;;;18.60;11.40;;;;;;;7.28;81.09;100405.86;130008;1267;109089;-74
2022/01/02 06:13:58;;;;;;;18.10;10.60;;;;;;;7.30;81.27;100402.65;130219;1267;108856;-74
2022/01/02 06:17:04;;;;;;;16.80;9.40;;;;;;;7.30;81.18;100397.20;130273;1267;108858;-75
2022/01/02 06:20:11;;;;;;;16.20;9.00;;;;;;;7.31;81.08;100391.41;130296;1268;106874;-73
2022/01/02 06:23:17;;;;;;;18.40;10.70;;;;;;;7.33;81.53;100389.71;130489;1267;108932;-72
2022/01/02 06:26:22;;;;;;;18.40;11.20;;;;;;;7.35;81.35;100386.83;130394;1267;108858;-74
2022/01/02 06:29:28;;;;;;;19.80;11.50;;;;;;;7.38;81.26;100386.10;130225;1267;108866;-73
2022/01/02 06:32:36;;;;;;;18.10;10.90;;;;;;;7.38;81.36;100381.13;130228;1267;108651;-75
2022/01/02 06:35:42;;;;;;;18.00;9.80;;;;;;;7.36;81.47;100374.39;130204;1267;108925;-75
2022/01/02 06:38:48;;;;;;;19.10;10.00;;;;;;;7.35;81.61;100373.98;130250;1267;109021;-75
2022/01/02 06:41:54;;;;;;;17.10;10.90;;;;;;;7.34;81.58;100364.95;130284;1267;109040;-74
2022/01/02 06:45:00;;;;;;;19.60;11.20;;;;;;;7.37;81.75;100356.06;130212;1267;108122;-77
2022/01/02 06:48:06;;;;;;;20.70;12.20;;;;;;;7.41;81.55;100355.20;130243;1268;108950;-76
2022/01/02 06:51:11;;;;;;;19.20;11.60;;;;;;;7.43;81.56;100352.91;130351;1267;108745;-77
2022/01/02 06:54:17;;;;;;;20.00;11.40;;;;;;;7.42;81.77;100356.92;130199;1267;108882;-77
2022/01/02 06:57:23;;;;;;;21.40;12.00;;;;;;;7.41;81.70;100356.80;130670;1267;108637;-75
2022/01/02 07:00:29;;;;;;;21.30;13.20;;;;;;;7.42;81.78;100357.56;131327;1267;108473;-78
2022/01/02 07:03:37;;;;;;;21.70;12.50;;;;;;;7.45;81.95;100351.85;130573;1268;108958;-82
2022/01/02 07:06:43;;;;;;;20.10;12.00;;;;;;;7.48;82.15;100348.58;130865;1267;108882;-85
2022/01/02 07:09:49;;;;;;;21.80;12.20;;;;;;;7.51;82.04;100342.74;130530;1267;108954;-78
2022/01/02 07:12:55;;;;;;;18.60;10.90;;;;;;;7.54;82.32;100348.13;130360;1267;108824;-78
2022/01/02 07:16:00;;;;;;;18.60;10.80;;;;;;;7.57;82.19;100348.40;130336;1267;107711;-78
2022/01/02 07:19:05;;;;;;;23.40;12.80;;;;;;;7.61;82.42;100338.63;130576;1267;108894;-76
2022/01/02 07:22:11;;;;;;;29.80;18.20;;;;;;;7.66;82.37;100337.11;130510;1267;108779;-75
2022/01/02 07:25:16;;;;;;;24.90;14.90;;;;;;;7.72;82.59;100336.08;130606;1267;108627;-77
2022/01/02 07:28:22;;;;;;;24.20;13.80;;;;;;;7.77;82.71;100329.10;130437;1267;108021;-77
2022/01/02 07:31:27;;;;;;;20.50;11.80;;;;;;;7.78;82.82;100320.52;131001;1267;108840;-78
2022/01/02 07:34:33;;;;;;;21.70;11.80;;;;;;;7.81;82.89;100314.77;130433;1267;108713;-79
2022/01/02 07:37:38;;;;;;;22.40;12.90;;;;;;;7.84;82.75;100300.83;130371;1267;108935;-77
2022/01/02 07:40:44;;;;;;;23.40;13.60;;;;;;;7.90;83.10;100301.08;130375;1268;108805;-76
2022/01/02 07:43:49;;;;;;;31.50;18.80;;;;;;;7.96;83.17;100311.35;130474;1268;108456;-83
2022/01/02 07:46:55;;;;;;;25.20;14.30;;;;;;;8.00;83.46;100306.16;130611;1267;108965;-79
2022/01/02 07:50:00;;;;;;;21.80;11.80;;;;;;;8.08;83.48;100302.30;130548;1267;108844;-83
2022/01/02 07:53:05;;;;;;;23.30;12.90;;;;;;;8.15;83.68;100289.15;130437;1268;109499;-82
2022/01/02 07:56:11;;;;;;;21.70;12.40;;;;;;;8.24;83.67;100278.52;130566;1268;109158;-80
2022/01/02 07:59:17;;;;;;;37.20;21.70;;;;;;;8.41;84.01;100273.32;130538;1268;108568;-86
2022/01/02 08:02:22;;;;;;;28.00;15.60;;;;;;;8.57;83.69;100270.27;130484;1268;108701;-82
2022/01/02 08:05:28;;;;;;;26.90;14.30;;;;;;;8.68;83.92;100259.77;130537;1268;108859;-85
2022/01/02 08:08:33;;;;;;;24.60;13.60;;;;;;;8.76;83.85;100262.55;130461;1268;107717;-75
2022/01/02 08:11:39;;;;;;;23.90;14.20;;;;;;;8.83;83.75;100262.23;130360;1268;108694;-75
2022/01/02 08:14:44;;;;;;;25.50;14.50;;;;;;;8.85;83.80;100259.23;130487;1268;108861;-78
2022/01/02 08:17:50;;;;;;;24.70;15.20;;;;;;;8.87;83.74;100252.28;130439;1267;108842;-78
2022/01/02 08:20:57;;;;;;;25.80;15.50;;;;;;;8.89;83.73;100242.40;130475;1267;107480;-77
2022/01/02 08:24:03;;;;;;;25.20;14.00;;;;;;;8.90;83.93;100234.16;130388;1267;108692;-75
2022/01/02 08:27:09;;;;;;;22.70;13.30;;;;;;;8.89;83.95;100226.20;130325;1266;108438;-75
2022/01/02 08:30:14;;;;;;;25.60;14.60;;;;;;;8.91;84.11;100228.00;130419;1267;108673;-75
2022/01/02 08:33:20;;;;;;;25.60;14.30;;;;;;;8.95;84.17;100215.43;130315;1268;108842;-80
2022/01/02 08:36:25;;;;;;;26.00;14.40;;;;;;;9.00;84.08;100222.67;130723;1266;108727;-79
2022/01/02 08:39:31;;;;;;;24.20;12.90;;;;;;;9.04;84.06;100212.73;130327;1267;107723;-85
2022/01/02 08:42:36;;;;;;;22.70;12.20;;;;;;;9.05;84.14;100208.77;130512;1268;108806;-80
2022/01/02 08:45:42;;;;;;;26.20;14.60;;;;;;;9.06;84.17;100211.15;130406;1268;107752;-79
2022/01/02 08:48:47;;;;;;;24.90;14.10;;;;;;;9.12;84.15;100200.65;130340;1267;108819;-83
2022/01/02 08:51:54;;;;;;;32.70;17.80;;;;;;;9.17;84.35;100193.07;130236;1268;108823;-76
2022/01/02 08:55:00;;;;;;;28.20;15.00;;;;;;;9.19;84.18;100188.86;130366;1268;108755;-73
2022/01/02 08:58:08;;;;;;;26.30;13.60;;;;;;;9.16;84.27;100188.55;130349;1268;108612;-76
2022/01/02 09:01:13;;;;;;;24.00;12.60;;;;;;;9.14;84.41;100182.06;130403;1268;108763;-80
2022/01/02 09:04:19;;;;;;;30.90;15.90;;;;;;;9.14;84.39;100171.77;130486;1267;110098;-76
2022/01/02 09:07:24;;;;;;;29.10;15.90;;;;;;;9.16;84.52;100163.77;130462;1267;108915;-77
2022/01/02 09:10:30;;;;;;;32.50;17.30;;;;;;;9.18;84.47;100163.89;130377;1268;108813;-76
2022/01/02 09:13:35;;;;;;;28.30;14.10;;;;;;;9.21;84.56;100156.68;130326;1267;108030;-75
2022/01/02 09:16:41;;;;;;;29.70;14.40;;;;;;;9.24;84.43;100155.36;130337;1268;108816;-74
2022/01/02 09:19:46;;;;;;;30.30;16.60;;;;;;;9.27;84.49;100152.36;130338;1268;108885;-74
2022/01/02 09:22:52;;;;;;;30.80;17.20;;;;;;;9.30;84.64;100137.33;130336;1268;108814;-74
2022/01/02 09:25:57;;;;;;;31.70;17.20;;;;;;;9.33;84.62;100125.87;130391;1268;107641;-77
2022/01/02 09:29:03;;;;;;;34.00;17.50;;;;;;;9.35;84.55;100122.67;130593;1268;109059;-76
2022/01/02 09:32:09;;;;;;;26.80;13.80;;;;;;;9.34;84.50;100108.88;130348;1268;108489;-78
2022/01/02 09:35:14;;;;;;;33.60;18.00;;;;;;;9.38;84.77;100104.83;130400;1268;107071;-78
2022/01/02 09:38:19;;;;;;;32.80;17.80;;;;;;;9.41;84.64;100093.70;130424;1268;108815;-79
2022/01/02 09:41:25;;;;;;;33.40;17.60;;;;;;;9.39;84.62;100078.65;130362;1268;108839;-81
2022/01/02 09:44:30;;;;;;;29.50;15.60;;;;;;;9.35;84.63;100078.84;130376;1268;108629;-79
2022/01/02 09:47:36;;;;;;;29.30;15.00;;;;;;;9.33;84.66;100071.58;130397;1267;108841;-76
2022/01/02 09:50:42;;;;;;;29.40;16.80;;;;;;;9.35;84.98;100068.01;130344;1268;108804;-78
2022/01/02 09:53:48;;;;;;;28.90;17.20;;;;;;;9.41;84.81;100052.61;130373;1268;108833;-80
2022/01/02 09:56:54;;;;;;;27.90;17.20;;;;;;;9.45;84.80;100039.66;130410;1268;108714;-78
2022/01/02 09:59:59;;;;;;;29.00;15.50;;;;;;;9.48;84.82;100028.98;130367;1268;108824;-80
2022/01/02 10:03:07;;;;;;;27.90;17.30;;;;;;;9.47;84.79;100017.00;130354;1268;108669;-78
2022/01/02 10:06:13;;;;;;;53.70;24.40;;;;;;;9.47;84.94;100019.46;130319;1268;108713;-75
2022/01/02 10:09:30;;;;;;;39.50;22.40;;;;;;;9.49;84.86;100017.09;130396;1268;108875;-80
2022/01/02 10:12:35;;;;;;;31.00;17.90;;;;;;;9.53;84.87;100032.91;130270;1268;108790;-77
2022/01/02 10:15:42;;;;;;;25.60;14.30;;;;;;;9.56;84.69;100025.32;130330;1268;108839;-79
2022/01/02 10:18:48;;;;;;;26.70;15.60;;;;;;;9.58;84.72;100018.52;130714;1268;108991;-77
2022/01/02 10:21:58;;;;;;;27.80;17.50;;;;;;;9.61;84.56;100000.79;130576;1268;108606;-77
2022/01/02 10:25:04;;;;;;;27.40;16.60;;;;;;;9.68;84.54;99983.40;130713;1268;108591;-81
2022/01/02 10:28:28;;;;;;;25.70;16.10;;;;;;;9.77;84.56;99978.11;130314;1268;108687;-78
2022/01/02 10:31:37;;;;;;;29.00;15.90;;;;;;;9.83;84.57;99975.16;130439;1267;108420;-77
2022/01/02 10:34:42;;;;;;;30.70;18.20;;;;;;;9.84;84.45;99974.16;130397;1268;107733;-78
2022/01/02 10:37:51;;;;;;;28.60;16.90;;;;;;;9.85;84.43;99975.14;130341;1267;108738;-77
2022/01/02 10:40:56;;;;;;;27.10;17.00;;;;;;;9.91;84.29;99969.05;130615;1268;108744;-77
2022/01/02 10:44:19;;;;;;;28.70;17.80;;;;;;;9.98;84.48;99958.58;130367;1268;108712;-73
2022/01/02 10:47:26;;;;;;;44.30;26.10;;;;;;;10.03;84.21;99943.95;130519;1268;108922;-77
2022/01/02 10:50:31;;;;;;;29.90;17.30;;;;;;;10.10;84.26;99941.35;130640;1268;108861;-76
2022/01/02 10:53:39;;;;;;;58.20;34.30;;;;;;;10.15;84.24;99938.19;130368;1268;108700;-78
2022/01/02 10:56:44;;;;;;;60.70;35.50;;;;;;;10.19;83.94;99927.45;130320;1268;108668;-75
2022/01/02 10:59:50;;;;;;;34.20;20.70;;;;;;;10.22;83.95;99924.30;130579;1268;108781;-75
2022/01/02 11:02:57;;;;;;;27.20;16.90;;;;;;;10.28;83.77;99925.79;130281;1271;107566;-75
2022/01/02 11:06:08;;;;;;;27.80;16.90;;;;;;;10.34;83.66;99928.27;130350;1268;108995;-75
2022/01/02 11:09:17;;;;;;;25.90;15.40;;;;;;;10.39;83.78;99927.67;130491;1268;108605;-76
2022/01/02 11:12:23;;;;;;;25.60;14.00;;;;;;;10.42;83.67;99911.91;130342;1268;108433;-74
2022/01/02 11:15:29;;;;;;;23.30;14.20;;;;;;;10.44;83.63;99904.59;130325;1268;108700;-78
2022/01/02 11:18:37;;;;;;;26.70;15.50;;;;;;;10.46;83.70;99895.83;130404;1268;108758;-75
2022/01/02 11:21:47;;;;;;;28.20;17.00;;;;;;;10.53;83.43;99890.30;130417;1268;109270;-75
2022/01/02 11:25:08;;;;;;;34.10;23.70;;;;;;;10.62;83.83;99887.64;130341;1268;109012;-76
2022/01/02 11:28:27;;;;;;;32.10;21.40;;;;;;;10.71;83.09;99878.69;130400;1268;108657;-74
2022/01/02 11:31:34;;;;;;;29.20;20.00;;;;;;;10.72;83.26;99873.02;130247;1268;108750;-75
2022/01/02 11:34:46;;;;;;;25.10;15.50;;;;;;;10.77;83.48;99869.86;130123;1268;108710;-74
2022/01/02 11:38:01;;;;;;;23.20;12.10;;;;;;;10.86;83.51;99868.01;130306;1268;108806;-75
2022/01/02 11:41:07;;;;;;;18.30;11.80;;;;;;;10.95;83.01;99865.88;130314;1268;108553;-74
2022/01/02 11:44:13;;;;;;;18.80;11.20;;;;;;;11.02;82.75;99871.90;130383;1268;108815;-75
2022/01/02 11:47:40;;;;;;;22.00;14.70;;;;;;;11.10;82.66;99877.19;130369;1268;108841;-74
2022/01/02 11:50:49;;;;;;;33.70;22.20;;;;;;;11.14;82.54;99871.78;130394;1268;109035;-75
2022/01/02 11:53:55;;;;;;;17.70;12.10;;;;;;;11.14;82.71;99859.80;130756;1268;108584;-74
2022/01/02 11:57:03;;;;;;;17.80;10.30;;;;;;;11.12;82.66;99850.58;130307;1268;109050;-74
2022/01/02 12:00:17;;;;;;;16.30;9.30;;;;;;;11.09;82.75;99836.66;130495;1267;108825;-76
2022/01/02 12:03:52;;;;;;;15.00;9.30;;;;;;;11.08;82.13;99818.65;130585;1268;107794;-75
2022/01/02 12:06:57;;;;;;;13.70;9.10;;;;;;;11.05;82.19;99806.64;130350;1268;107741;-74
2022/01/02 12:10:24;;;;;;;15.00;9.40;;;;;;;11.04;82.05;99797.41;130390;1268;108819;-74
2022/01/02 12:13:37;;;;;;;17.70;9.70;;;;;;;10.98;81.86;99795.77;130302;1268;108883;-74
2022/01/02 12:16:51;;;;;;;14.30;9.30;;;;;;;10.95;82.14;99799.38;130283;1268;107588;-74
2022/01/02 12:20:07;;;;;;;21.90;12.40;;;;;;;10.88;81.86;99804.18;130197;1270;108757;-74
2022/01/02 12:23:13;;;;;;;14.10;9.20;;;;;;;10.83;81.83;99818.16;130210;1268;108926;-75
2022/01/02 12:26:21;;;;;;;32.80;22.50;;;;;;;10.78;81.59;99793.23;130212;1268;107708;-75
2022/01/02 12:29:28;;;;;;;24.00;15.40;;;;;;;10.77;81.63;99776.06;130270;1267;107549;-75
2022/01/02 12:32:33;;;;;;;25.50;17.90;;;;;;;10.80;82.01;99768.78;130354;1268;108642;-75
2022/01/02 12:35:43;;;;;;;29.60;19.50;;;;;;;10.83;81.98;99765.31;130323;1268;108774;-74
2022/01/02 12:38:49;;;;;;;24.70;16.00;;;;;;;10.84;81.92;99755.94;130384;1268;107676;-75
2022/01/02 12:42:00;;;;;;;20.20;13.30;;;;;;;10.83;81.97;99749.63;130382;1268;108791;-75
2022/01/02 12:45:07;;;;;;;23.40;13.60;;;;;;;10.79;81.63;99748.36;130371;1268;108750;-75
2022/01/02 12:48:13;;;;;;;23.80;17.10;;;;;;;10.76;81.43;99742.05;130333;1268;109065;-75
2022/01/02 12:51:18;;;;;;;49.00;33.00;;;;;;;10.74;81.64;99747.55;130290;1268;108816;-74
2022/01/02 12:54:27;;;;;;;50.90;32.00;;;;;;;10.75;81.39;99747.14;130339;1268;108901;-75
2022/01/02 12:57:32;;;;;;;40.30;26.00;;;;;;;10.77;81.52;99725.17;130227;1268;107367;-75
2022/01/02 13:00:38;;;;;;;30.40;19.70;;;;;;;10.76;81.28;99729.69;130192;1270;108861;-75
2022/01/02 13:03:47;;;;;;;55.10;35.10;;;;;;;10.74;81.38;99722.32;130340;1268;108643;-74
2022/01/02 13:06:55;;;;;;;76.10;48.10;;;;;;;10.71;81.29;99719.98;130310;1268;108626;-75
2022/01/02 13:10:02;;;;;;;96.80;55.50;;;;;;;10.65;81.17;99728.75;130367;1268;108798;-75
2022/01/02 13:13:08;;;;;;;56.90;32.50;;;;;;;10.60;80.65;99729.63;130299;1268;109795;-79
2022/01/02 13:16:13;;;;;;;67.20;39.70;;;;;;;10.59;81.34;99724.25;130447;1268;108896;-77
2022/01/02 13:19:19;;;;;;;64.30;38.30;;;;;;;10.61;81.23;99743.30;130336;1268;108649;-79
2022/01/02 13:22:25;;;;;;;80.10;43.30;;;;;;;10.63;80.82;99750.01;130670;1268;108714;-77
2022/01/02 13:25:33;;;;;;;41.20;23.00;;;;;;;10.63;80.91;99740.73;130409;1268;109670;-80
2022/01/02 13:28:38;;;;;;;65.50;36.60;;;;;;;10.59;80.73;99725.80;130484;1268;107634;-79
2022/01/02 13:31:43;;;;;;;86.60;55.40;;;;;;;10.55;80.70;99714.62;131464;1268;108701;-76
2022/01/02 13:35:02;;;;;;;19.10;12.50;;;;;;;10.50;80.45;99716.38;131011;1268;108667;-81
2022/01/02 13:38:08;;;;;;;17.20;12.30;;;;;;;10.45;80.55;99719.54;130835;1268;108782;-75
2022/01/02 13:41:13;;;;;;;51.70;35.30;;;;;;;10.44;80.56;99716.52;130397;1268;107646;-75
2022/01/02 13:44:20;;;;;;;33.60;22.70;;;;;;;10.46;80.14;99722.15;130480;1268;107786;-76
2022/01/02 13:47:35;;;;;;;14.60;9.10;;;;;;;10.47;80.35;99721.48;130370;1268;109104;-72
2022/01/02 13:50:43;;;;;;;20.20;14.40;;;;;;;10.46;80.28;99718.05;130628;1268;108749;-72
2022/01/02 13:53:50;;;;;;;14.10;9.70;;;;;;;10.43;79.80;99709.87;130592;1267;108639;-73
2022/01/02 13:57:06;;;;;;;12.90;7.20;;;;;;;10.38;80.07;99705.16;130379;1268;108751;-77
2022/01/02 14:00:22;;;;;;;9.70;5.90;;;;;;;10.34;80.14;99693.73;131096;1267;108569;-76
2022/01/02 14:03:33;;;;;;;10.50;6.40;;;;;;;10.33;80.21;99681.35;130581;1268;108678;-75
2022/01/02 14:06:40;;;;;;;9.80;6.40;;;;;;;10.35;80.15;99678.36;131038;1268;108738;-76
2022/01/02 14:09:52;;;;;;;11.20;6.50;;;;;;;10.35;80.18;99675.86;130547;1267;109162;-83
2022/01/02 14:12:59;;;;;;;;;;;;;;;10.33;80.06;99670.23;130360;1268;108345;-76